메인 페이지
METAR-TAF:

METAR-TAF

공항 :

워싱턴 덜레스 국제공항

워싱톤, 버지니아, 미국

위도: 38-56-05N, 경도: 077-26-51W, 고도: 95m

현재 날씨관측

예보는 35분 전, 07:52시(UTC)에 발표되었습니다.
무풍
온도 18°C
습도 94%
기압 1020 hPa
시정: 16.1km
고도 6500ft 상공 구름 조금
고도 25000ft 상공 구름 조금

METAR: KIAD 200752Z 00000KT 10SM FEW065 FEW250 18/17 A3011 RMK AO2 SLP192 T01780167

시각: 04:27 (08:27 UTC)

예보

예보는 2 시간 52분 전, 05:35시(UTC)에 발표되었습니다.
예보 대상 시간: 20일 06시부터 21일 12시까지 (UTC)
kt
시정: 10km
고도 25000ft 상공 구름 보통
20일 0900시부터 (UTC)
여러 방향의 바람 3kt
시정: 10km
고도 5000ft 상공 구름 조금
20일 1300시부터 (UTC)
4kt
시정: 10km
고도 25000ft 상공 구름 조금
20일 1800시부터 (UTC)
남동8kt
시정: 10km
고도 6000ft 상공 구름 보통
21일 0500시부터 (UTC)
동남동6kt
시정: 10km
고도 20000ft 상공 구름 많음
21일 0900시부터 (UTC)
5kt
시정: 10km
고도 2500ft 상공 구름 많음

TAF: KIAD 200535Z 2006/2112 00000KT P6SM SCT250 FM200900 VRB03KT P6SM FEW050 FM201300 17004KT P6SM FEW250 FM201800 14008KT P6SM SCT060 FM210500 12006KT P6SM BKN200 FM210900 10005KT P6SM BKN025

4,000개 이상의 공항 관측 자료 및 예보 (METAR 및 TAF 보고).

지도상에서 검색 가능한 기상관측소가 노란 점과 빨간 점으로 표시되어 있습니다.

기상관측소 명을 보려면 표시 위로 마우스를 이동하세요.

날씨 관측과 예보를 보려면 클릭하세요.

지도 변경 : 확대하려면 엑스 표시가 있는 녹색 버튼, 축소하려면 빼기 표시가 있는 녹색 버튼, 다음 페이지의 지도를 보려면 녹색 화살표를 클릭하세요.


METAR-TAF: